Time;durP1;ratioP1;P1;durP2;ratioP2;P2;SDS_P1;SDS_P2;PMS_P1;PMS_P2;Temp;Humidity;BMP_temperature;BMP_pressure;BME280_temperature;BME280_humidity;BME280_pressure;Samples;Min_cycle;Max_cycle;Signal;HPM_P1;HPM_P2
2023/04/28 00:02:25;;;;;;;8.53;7.73;;;;;;;6.09;nan;96971.94;4948475;28;20341;-67
2023/04/28 00:04:55;;;;;;;11.60;9.23;;;;;;;6.17;nan;96973.72;4916790;28;20241;-68
2023/04/28 00:07:22;;;;;;;9.10;7.77;;;;;;;6.03;nan;96970.75;4947177;28;20499;-70
2023/04/28 00:09:50;;;;;;;8.87;7.63;;;;;;;6.07;nan;96979.16;4892217;28;21114;-70
2023/04/28 00:12:18;;;;;;;8.50;7.60;;;;;;;5.95;nan;96978.59;4921027;28;20217;-68
2023/04/28 00:14:46;;;;;;;7.97;7.27;;;;;;;5.91;nan;96972.81;4912594;28;20218;-68
2023/04/28 00:17:13;;;;;;;7.93;7.30;;;;;;;5.92;nan;96965.75;4950976;28;20662;-68
2023/04/28 00:19:41;;;;;;;8.53;7.83;;;;;;;5.96;nan;96963.63;4952821;28;20211;-68
2023/04/28 00:22:10;;;;;;;9.60;7.70;;;;;;;6.00;nan;96965.78;4950188;28;20213;-70
2023/04/28 00:24:38;;;;;;;8.80;7.70;;;;;;;6.01;nan;96964.81;4898565;28;20323;-70
2023/04/28 00:27:06;;;;;;;7.30;6.80;;;;;;;6.07;nan;96977.34;4949071;28;20237;-69
2023/04/28 00:29:33;;;;;;;8.30;7.60;;;;;;;6.07;nan;96969.44;4930469;28;20238;-68
2023/04/28 00:32:01;;;;;;;8.70;7.93;;;;;;;6.14;nan;96958.28;4930110;28;20213;-70
2023/04/28 00:34:32;;;;;;;7.33;6.87;;;;;;;6.13;nan;96957.47;4949698;28;20620;-68
2023/04/28 00:37:00;;;;;;;9.23;7.47;;;;;;;6.14;nan;96966.16;4919852;28;20327;-69
2023/04/28 00:39:29;;;;;;;9.63;7.83;;;;;;;6.11;nan;96953.34;4897724;28;20288;-67
2023/04/28 00:41:57;;;;;;;7.80;7.17;;;;;;;6.05;nan;96960.88;4954946;28;20276;-67
2023/04/28 00:44:24;;;;;;;8.00;7.40;;;;;;;6.05;nan;96950.38;4920814;28;20461;-68
2023/04/28 00:46:52;;;;;;;8.23;7.53;;;;;;;6.07;nan;96953.66;4931820;28;20292;-67
2023/04/28 00:49:20;;;;;;;7.83;7.13;;;;;;;6.11;nan;96959.44;4951748;28;20210;-70
2023/04/28 00:51:49;;;;;;;8.53;7.83;;;;;;;6.10;nan;96962.22;4954553;28;20635;-69
2023/04/28 00:54:17;;;;;;;8.17;7.43;;;;;;;6.06;nan;96961.69;4917814;28;22433;-70
2023/04/28 00:56:47;;;;;;;8.77;8.07;;;;;;;6.08;nan;96962.38;4915583;28;20653;-69
2023/04/28 00:59:14;;;;;;;8.97;8.27;;;;;;;6.10;nan;96954.31;4930833;28;20465;-70
2023/04/28 01:01:42;;;;;;;7.60;6.90;;;;;;;6.11;nan;96955.97;4935591;28;20442;-68
2023/04/28 01:04:10;;;;;;;7.77;7.13;;;;;;;6.06;nan;96952.00;4928669;28;20209;-69
2023/04/28 01:06:38;;;;;;;8.03;7.43;;;;;;;6.05;nan;96941.63;4947469;28;20209;-69
2023/04/28 01:09:06;;;;;;;10.47;7.43;;;;;;;6.07;nan;96939.69;4924829;28;20551;-69
2023/04/28 01:11:34;;;;;;;7.93;7.33;;;;;;;6.09;nan;96940.34;4904757;28;20342;-68
2023/04/28 01:14:03;;;;;;;8.23;7.63;;;;;;;6.10;nan;96936.75;4949829;28;20233;-69
2023/04/28 01:16:32;;;;;;;10.83;8.10;;;;;;;6.10;nan;96943.78;4905955;28;20244;-71
2023/04/28 01:19:00;;;;;;;8.67;7.97;;;;;;;6.08;nan;96934.25;4923689;28;20626;-70
2023/04/28 01:21:29;;;;;;;8.37;7.70;;;;;;;6.01;nan;96925.38;4953963;28;20283;-70
2023/04/28 01:23:58;;;;;;;7.53;6.80;;;;;;;5.99;nan;96939.63;4929010;28;20645;-68
2023/04/28 01:26:26;;;;;;;8.47;7.87;;;;;;;5.93;nan;96946.38;4908644;28;21632;-70
2023/04/28 01:28:53;;;;;;;9.83;8.77;;;;;;;5.82;nan;96936.97;4958358;28;20296;-68
2023/04/28 01:31:21;;;;;;;7.60;7.00;;;;;;;5.70;nan;96938.25;4935559;28;20307;-70
2023/04/28 01:33:49;;;;;;;7.33;6.63;;;;;;;5.67;nan;96934.13;4932218;28;20343;-70
2023/04/28 01:36:17;;;;;;;12.03;7.97;;;;;;;5.67;nan;96936.75;4925196;28;20217;-70
2023/04/28 01:38:44;;;;;;;8.03;7.23;;;;;;;5.61;nan;96940.81;4945912;28;20221;-69
2023/04/28 01:41:13;;;;;;;7.73;6.93;;;;;;;5.56;nan;96934.41;4958061;28;20267;-70
2023/04/28 01:43:42;;;;;;;8.13;7.53;;;;;;;5.60;nan;96933.91;4912958;28;20209;-70
2023/04/28 01:46:10;;;;;;;7.23;6.67;;;;;;;5.63;nan;96924.91;4928188;28;20252;-71
2023/04/28 01:48:38;;;;;;;7.80;7.20;;;;;;;5.62;nan;96924.06;4928185;28;20384;-70
2023/04/28 01:51:05;;;;;;;7.57;6.97;;;;;;;5.61;nan;96932.13;4956393;28;20607;-70
2023/04/28 01:53:33;;;;;;;9.07;8.27;;;;;;;5.67;nan;96923.59;4953640;28;20273;-70
2023/04/28 01:56:01;;;;;;;7.60;7.10;;;;;;;5.76;nan;96924.47;4950455;28;20629;-70
2023/04/28 01:58:30;;;;;;;8.13;7.50;;;;;;;5.77;nan;96926.91;4899289;28;20738;-70
2023/04/28 02:00:58;;;;;;;8.23;7.63;;;;;;;5.67;nan;96905.22;4954932;28;20447;-70
2023/04/28 02:03:26;;;;;;;8.97;8.27;;;;;;;5.57;nan;96900.06;4934711;28;20206;-72
2023/04/28 02:05:54;;;;;;;9.33;7.70;;;;;;;5.63;nan;96912.56;4924508;28;20655;-68
2023/04/28 02:08:22;;;;;;;8.33;7.30;;;;;;;5.73;nan;96909.81;4943756;28;20233;-71
2023/04/28 02:10:49;;;;;;;7.50;6.87;;;;;;;5.82;nan;96912.47;4956021;28;20816;-70
2023/04/28 02:13:17;;;;;;;8.20;7.00;;;;;;;5.78;nan;96891.75;4953571;28;20276;-70
2023/04/28 02:15:46;;;;;;;7.80;7.03;;;;;;;5.84;nan;96899.97;4901372;28;20504;-70
2023/04/28 02:18:14;;;;;;;8.20;7.40;;;;;;;5.83;nan;96906.22;4927784;28;20272;-71
2023/04/28 02:20:42;;;;;;;7.60;6.97;;;;;;;5.87;nan;96902.28;4935002;28;20217;-69
2023/04/28 02:23:09;;;;;;;7.93;7.23;;;;;;;5.89;nan;96893.25;4956909;28;20629;-68
2023/04/28 02:25:37;;;;;;;8.30;7.60;;;;;;;5.88;nan;96896.06;4955153;28;20210;-70
2023/04/28 02:28:05;;;;;;;7.67;6.97;;;;;;;5.86;nan;96900.63;4956715;28;20739;-67
2023/04/28 02:30:32;;;;;;;8.07;7.30;;;;;;;5.88;nan;96899.50;4906786;28;20637;-69
2023/04/28 02:33:01;;;;;;;9.47;7.30;;;;;;;5.87;nan;96894.41;4927087;28;20724;-68
2023/04/28 02:35:29;;;;;;;7.77;7.10;;;;;;;5.70;nan;96890.94;4929770;28;20229;-69
2023/04/28 02:37:57;;;;;;;9.77;8.83;;;;;;;5.67;nan;96899.94;4954547;28;20233;-69
2023/04/28 02:40:24;;;;;;;8.90;8.20;;;;;;;5.59;nan;96900.75;4927156;28;20229;-68
2023/04/28 02:42:52;;;;;;;10.00;8.90;;;;;;;5.65;nan;96902.72;4957751;28;20775;-67
2023/04/28 02:45:20;;;;;;;10.97;8.20;;;;;;;5.61;nan;96900.59;4906805;28;20221;-70
2023/04/28 02:47:47;;;;;;;9.50;8.80;;;;;;;5.50;nan;96896.44;4949287;28;20898;-71
2023/04/28 02:50:16;;;;;;;8.50;7.80;;;;;;;5.35;nan;96885.72;4919335;28;20213;-69
2023/04/28 02:52:44;;;;;;;9.70;8.50;;;;;;;5.27;nan;96897.00;4943325;28;20225;-69
2023/04/28 02:55:22;;;;;;;8.50;7.53;;;;;;;5.22;nan;96905.38;4944979;28;20803;-70
2023/04/28 02:57:50;;;;;;;8.77;7.97;;;;;;;5.25;nan;96909.47;4952687;28;20436;-70
2023/04/28 03:00:18;;;;;;;8.60;7.73;;;;;;;5.35;nan;96897.06;4905101;28;20365;-70
2023/04/28 03:02:46;;;;;;;8.57;7.97;;;;;;;5.39;nan;96892.28;4954341;28;20209;-70
2023/04/28 03:05:14;;;;;;;8.57;7.87;;;;;;;5.39;nan;96891.47;4929213;28;20213;-70
2023/04/28 03:07:43;;;;;;;9.50;8.23;;;;;;;5.36;nan;96889.97;4939973;28;20534;-69
2023/04/28 03:10:11;;;;;;;8.37;7.77;;;;;;;5.28;nan;96885.50;4953543;28;20212;-69
2023/04/28 03:12:38;;;;;;;8.80;8.00;;;;;;;5.19;nan;96882.03;4928625;28;22593;-69
2023/04/28 03:15:07;;;;;;;8.37;7.60;;;;;;;5.16;nan;96879.75;4900925;28;20261;-69
2023/04/28 03:17:37;;;;;;;9.13;8.43;;;;;;;5.16;nan;96873.66;4949348;28;20444;-69
2023/04/28 03:20:06;;;;;;;8.50;7.70;;;;;;;5.04;nan;96870.47;4936997;28;20209;-69
2023/04/28 03:22:34;;;;;;;8.40;7.70;;;;;;;5.16;nan;96874.47;4919812;28;20587;-69
2023/04/28 03:25:04;;;;;;;7.93;7.33;;;;;;;5.26;nan;96871.72;4926060;28;20570;-68
2023/04/28 03:27:31;;;;;;;8.37;7.77;;;;;;;5.38;nan;96874.06;4949710;28;20283;-69
2023/04/28 03:29:59;;;;;;;8.90;8.10;;;;;;;5.38;nan;96869.63;4955070;28;20210;-71
2023/04/28 03:32:27;;;;;;;8.20;7.60;;;;;;;5.42;nan;96878.03;4895433;28;20276;-71
2023/04/28 03:34:55;;;;;;;7.77;7.03;;;;;;;5.45;nan;96875.88;4927223;28;20230;-69
2023/04/28 03:37:22;;;;;;;8.97;8.17;;;;;;;5.53;nan;96871.66;4930292;28;20232;-69
2023/04/28 03:39:50;;;;;;;7.33;6.73;;;;;;;5.48;nan;96875.56;4955564;28;20214;-68
2023/04/28 03:42:19;;;;;;;7.87;7.27;;;;;;;5.35;nan;96862.91;4930312;28;20308;-69
2023/04/28 03:44:47;;;;;;;8.43;7.73;;;;;;;5.12;nan;96853.94;4931678;28;21022;-69
2023/04/28 03:47:14;;;;;;;8.97;8.30;;;;;;;5.17;nan;96851.66;4910846;28;20313;-69
2023/04/28 03:49:42;;;;;;;8.67;7.83;;;;;;;5.13;nan;96856.41;4949587;28;20971;-69
2023/04/28 03:52:10;;;;;;;8.33;7.50;;;;;;;5.27;nan;96860.22;4908217;28;20213;-69
2023/04/28 03:54:37;;;;;;;8.10;7.50;;;;;;;5.33;nan;96853.53;4902133;28;20210;-69
2023/04/28 03:57:05;;;;;;;9.23;8.47;;;;;;;5.29;nan;96844.31;4936198;28;20237;-69
2023/04/28 03:59:34;;;;;;;8.90;8.10;;;;;;;5.25;nan;96843.78;4956908;28;20256;-69
2023/04/28 04:02:02;;;;;;;9.00;8.20;;;;;;;5.28;nan;96842.66;4924027;28;20217;-71
2023/04/28 04:04:30;;;;;;;9.60;8.63;;;;;;;5.49;nan;96855.38;4933511;28;20221;-69
2023/04/28 04:06:58;;;;;;;9.83;9.03;;;;;;;5.55;nan;96843.41;4932377;28;20479;-69
2023/04/28 04:09:26;;;;;;;9.43;8.53;;;;;;;5.58;nan;96837.84;4931165;28;21007;-68
2023/04/28 04:11:54;;;;;;;8.87;7.73;;;;;;;5.61;nan;96837.50;4940094;28;20571;-68
2023/04/28 04:14:21;;;;;;;8.43;7.67;;;;;;;5.60;nan;96831.41;4944750;28;20860;-68
2023/04/28 04:16:50;;;;;;;8.07;7.33;;;;;;;5.54;nan;96834.69;4949626;28;20398;-68
2023/04/28 04:19:18;;;;;;;8.40;7.60;;;;;;;5.40;nan;96833.50;4904482;28;20363;-67
2023/04/28 04:21:46;;;;;;;8.10;7.50;;;;;;;5.48;nan;96844.03;4952523;28;20210;-68
2023/04/28 04:24:13;;;;;;;8.10;7.37;;;;;;;5.58;nan;96837.84;4913924;28;21155;-69
2023/04/28 04:26:41;;;;;;;7.67;6.50;;;;;;;5.61;nan;96833.06;4956530;28;20346;-68
2023/04/28 04:29:09;;;;;;;7.60;6.90;;;;;;;5.73;nan;96833.59;4931811;28;20810;-68
2023/04/28 04:31:37;;;;;;;6.97;6.57;;;;;;;5.85;nan;96825.38;4953561;28;20214;-68
2023/04/28 04:34:07;;;;;;;7.60;6.17;;;;;;;5.81;nan;96827.53;4905239;28;20279;-68
2023/04/28 04:36:35;;;;;;;8.50;7.40;;;;;;;5.92;nan;96823.75;4953568;28;20225;-68
2023/04/28 04:39:03;;;;;;;7.57;6.97;;;;;;;5.89;nan;96821.47;4920890;28;20550;-68
2023/04/28 04:41:31;;;;;;;7.00;6.60;;;;;;;6.05;nan;96818.84;4949370;28;20209;-67
2023/04/28 04:43:58;;;;;;;7.20;6.50;;;;;;;6.26;nan;96819.34;4937134;28;20713;-68
2023/04/28 04:46:26;;;;;;;7.30;6.70;;;;;;;6.41;nan;96817.66;4953910;28;20515;-68
2023/04/28 04:48:54;;;;;;;7.23;6.57;;;;;;;6.40;nan;96813.41;4926355;28;20226;-68
2023/04/28 04:51:23;;;;;;;7.93;7.07;;;;;;;6.45;nan;96823.44;4915762;28;20737;-68
2023/04/28 04:53:51;;;;;;;6.93;6.37;;;;;;;6.48;nan;96821.31;4934373;28;20663;-68
2023/04/28 04:56:18;;;;;;;7.23;6.63;;;;;;;6.60;nan;96816.50;4917489;28;20589;-69
2023/04/28 04:58:46;;;;;;;6.67;5.93;;;;;;;6.66;nan;96815.84;4938289;28;20474;-67
2023/04/28 05:01:14;;;;;;;6.97;6.27;;;;;;;6.54;nan;96813.72;4951670;28;20629;-67
2023/04/28 05:03:42;;;;;;;7.20;6.53;;;;;;;6.59;nan;96814.84;4949979;28;20697;-66
2023/04/28 05:06:10;;;;;;;7.70;7.10;;;;;;;6.59;nan;96811.41;4894823;28;20667;-67
2023/04/28 05:08:39;;;;;;;8.63;7.83;;;;;;;6.49;nan;96803.69;4944464;28;20262;-66
2023/04/28 05:11:07;;;;;;;8.30;7.57;;;;;;;6.44;nan;96800.75;4914397;28;20284;-67
2023/04/28 05:13:34;;;;;;;7.27;6.60;;;;;;;6.32;nan;96811.63;4938168;28;20272;-69
2023/04/28 05:16:02;;;;;;;7.73;7.03;;;;;;;6.42;nan;96816.69;4948521;28;20236;-67
2023/04/28 05:18:30;;;;;;;7.70;7.10;;;;;;;6.73;nan;96809.91;4948216;28;20233;-67
2023/04/28 05:20:58;;;;;;;7.57;6.87;;;;;;;6.98;nan;96802.75;4936419;28;20737;-67
2023/04/28 05:23:26;;;;;;;8.13;6.40;;;;;;;7.16;nan;96799.03;4914139;28;21012;-67
2023/04/28 05:25:55;;;;;;;7.70;7.00;;;;;;;7.26;nan;96804.09;4928569;28;20212;-67
2023/04/28 05:28:23;;;;;;;9.87;8.13;;;;;;;7.39;nan;96802.56;4923672;28;20942;-68
2023/04/28 05:30:50;;;;;;;10.27;9.37;;;;;;;7.42;nan;96798.75;4952659;28;20252;-70
2023/04/28 05:33:18;;;;;;;10.73;9.80;;;;;;;7.56;nan;96793.72;4950112;28;20592;-67
2023/04/28 05:35:46;;;;;;;9.67;8.77;;;;;;;7.74;nan;96794.25;4944299;28;20222;-67
2023/04/28 05:38:13;;;;;;;9.40;7.43;;;;;;;8.00;nan;96803.63;4880304;28;20764;-67
2023/04/28 05:40:41;;;;;;;7.20;6.60;;;;;;;8.23;nan;96805.44;4933702;28;20496;-67
2023/04/28 05:43:10;;;;;;;7.27;5.80;;;;;;;8.42;nan;96798.00;4898648;28;20249;-67
2023/04/28 05:45:38;;;;;;;7.07;6.43;;;;;;;8.65;nan;96808.53;4925640;28;20210;-66
2023/04/28 05:48:06;;;;;;;6.07;5.57;;;;;;;8.81;nan;96808.38;4928461;28;20233;-68
2023/04/28 05:50:33;;;;;;;5.67;5.20;;;;;;;8.90;nan;96814.41;4949231;28;20676;-68
2023/04/28 05:53:03;;;;;;;6.13;5.53;;;;;;;9.02;nan;96813.94;4901647;28;20225;-67
2023/04/28 05:55:32;;;;;;;6.40;5.70;;;;;;;9.09;nan;96797.16;4951190;28;20789;-69
2023/04/28 05:58:00;;;;;;;6.33;5.73;;;;;;;9.23;nan;96810.53;4897684;28;20238;-69
2023/04/28 06:00:29;;;;;;;6.13;5.73;;;;;;;9.32;nan;96813.91;4918228;28;20257;-70
2023/04/28 06:02:57;;;;;;;6.40;5.20;;;;;;;9.37;nan;96811.53;4946008;28;20645;-66
2023/04/28 06:05:25;;;;;;;6.07;5.50;;;;;;;9.44;nan;96804.47;4933685;28;20210;-68
2023/04/28 06:07:54;;;;;;;6.40;5.20;;;;;;;9.56;nan;96800.34;4889570;28;20222;-67
2023/04/28 06:10:22;;;;;;;5.93;5.50;;;;;;;9.71;nan;96810.06;4945840;28;20209;-67
2023/04/28 06:12:50;;;;;;;5.63;5.23;;;;;;;9.65;nan;96816.91;4936119;28;20237;-67
2023/04/28 06:15:19;;;;;;;6.47;5.10;;;;;;;9.66;nan;96805.31;4929595;28;20532;-67
2023/04/28 06:17:48;;;;;;;5.80;5.30;;;;;;;9.69;nan;96807.59;4939538;28;20550;-68
2023/04/28 06:20:16;;;;;;;5.60;5.07;;;;;;;9.73;nan;96801.94;4906467;28;20237;-67
2023/04/28 06:22:43;;;;;;;5.67;5.27;;;;;;;9.76;nan;96788.31;4943157;28;20233;-69
2023/04/28 06:25:11;;;;;;;5.87;5.20;;;;;;;9.75;nan;96786.69;4900076;28;20222;-68
2023/04/28 06:27:39;;;;;;;9.13;5.40;;;;;;;9.69;nan;96788.28;4925636;28;21851;-68
2023/04/28 06:30:08;;;;;;;5.47;5.07;;;;;;;9.71;nan;96788.91;4954431;28;20906;-67
2023/04/28 06:32:36;;;;;;;5.93;5.33;;;;;;;9.71;nan;96794.19;4914187;28;20329;-67
2023/04/28 06:35:06;;;;;;;7.13;5.17;;;;;;;9.71;nan;96788.91;4937734;28;20225;-68
2023/04/28 06:37:34;;;;;;;6.97;5.30;;;;;;;9.77;nan;96792.59;4945537;28;20242;-67
2023/04/28 06:40:02;;;;;;;6.50;5.77;;;;;;;9.77;nan;96790.78;4904385;28;20221;-67
2023/04/28 06:42:30;;;;;;;6.30;5.00;;;;;;;9.69;nan;96778.50;4919027;28;20339;-67
2023/04/28 06:44:58;;;;;;;6.43;5.33;;;;;;;9.76;nan;96777.75;4951777;28;20494;-68
2023/04/28 06:47:25;;;;;;;5.37;4.90;;;;;;;9.66;nan;96785.97;4931373;28;20382;-67
2023/04/28 06:49:53;;;;;;;6.33;5.00;;;;;;;9.61;nan;96783.09;4931098;28;20685;-67
2023/04/28 06:52:22;;;;;;;5.27;4.87;;;;;;;9.60;nan;96789.38;4941858;28;20524;-68
2023/04/28 06:55:00;;;;;;;5.83;5.07;;;;;;;9.56;nan;96791.59;4906034;28;20589;-68
2023/04/28 06:57:27;;;;;;;5.00;4.60;;;;;;;9.59;nan;96801.81;4934912;28;21061;-68
2023/04/28 06:59:55;;;;;;;5.33;4.93;;;;;;;9.59;nan;96806.25;4954958;28;20533;-68
2023/04/28 07:02:23;;;;;;;5.07;4.60;;;;;;;9.56;nan;96796.88;4925695;28;20240;-67
2023/04/28 07:04:51;;;;;;;5.67;4.50;;;;;;;9.63;nan;96805.72;4955189;28;20221;-67
2023/04/28 07:07:18;;;;;;;4.60;4.30;;;;;;;9.70;nan;96800.50;4932065;28;20246;-68
2023/04/28 07:09:47;;;;;;;6.53;4.77;;;;;;;9.80;nan;96801.00;4899510;28;20267;-67
2023/04/28 07:12:15;;;;;;;5.83;4.53;;;;;;;9.92;nan;96797.84;4951184;28;20536;-68
2023/04/28 07:14:42;;;;;;;9.37;5.70;;;;;;;10.10;nan;96798.22;4935517;28;20613;-67
2023/04/28 07:17:10;;;;;;;5.77;4.57;;;;;;;10.23;nan;96799.34;4947302;28;20545;-68
2023/04/28 07:19:38;;;;;;;6.53;5.43;;;;;;;10.41;nan;96802.34;4934451;28;20237;-67
2023/04/28 07:22:06;;;;;;;6.47;5.80;;;;;;;10.47;nan;96807.91;4930144;28;20938;-67
2023/04/28 07:24:33;;;;;;;6.20;5.63;;;;;;;10.59;nan;96808.19;4951493;28;20907;-67
2023/04/28 07:27:03;;;;;;;5.57;4.97;;;;;;;10.68;nan;96797.25;4908354;28;20722;-67
2023/04/28 07:29:33;;;;;;;6.60;5.43;;;;;;;10.67;nan;96805.41;4934011;28;20670;-67
2023/04/28 07:32:01;;;;;;;5.40;5.00;;;;;;;10.72;nan;96792.38;4955449;28;20318;-67
2023/04/28 07:34:28;;;;;;;5.70;5.10;;;;;;;10.79;nan;96789.75;4932335;28;20686;-68
2023/04/28 07:36:57;;;;;;;9.83;5.73;;;;;;;10.75;nan;96785.88;4927039;28;20538;-66
2023/04/28 07:39:25;;;;;;;5.70;5.20;;;;;;;10.76;nan;96774.25;4952313;28;20225;-67
2023/04/28 07:41:52;;;;;;;5.60;5.10;;;;;;;10.82;nan;96784.91;4904881;28;20283;-68
2023/04/28 07:44:22;;;;;;;5.47;5.07;;;;;;;10.91;nan;96790.88;4952900;28;20213;-69
2023/04/28 07:46:49;;;;;;;5.75;5.32;;;;;;;10.97;nan;96791.91;4930985;28;20880;-68
2023/04/28 07:49:19;;;;;;;5.50;5.17;;;;;;;11.19;nan;96787.34;4930697;28;20214;-66
2023/04/28 07:51:46;;;;;;;5.80;5.40;;;;;;;11.40;nan;96785.56;4933912;28;20221;-68
2023/04/28 07:54:14;;;;;;;5.53;5.20;;;;;;;11.57;nan;96783.38;4951991;28;20206;-67
2023/04/28 07:56:42;;;;;;;6.40;5.13;;;;;;;11.70;nan;96786.06;4952525;28;20205;-68
2023/04/28 07:59:10;;;;;;;6.97;6.03;;;;;;;11.69;nan;96788.91;4902894;28;20630;-68
2023/04/28 08:01:39;;;;;;;6.10;5.50;;;;;;;11.58;nan;96785.84;4897082;28;20210;-68
2023/04/28 08:04:06;;;;;;;8.17;5.23;;;;;;;11.44;nan;96784.97;4952293;28;20301;-68
2023/04/28 08:06:35;;;;;;;5.70;5.20;;;;;;;11.26;nan;96779.41;4900230;28;20673;-68
2023/04/28 08:09:04;;;;;;;6.50;5.90;;;;;;;11.30;nan;96777.97;4933706;28;20428;-68
2023/04/28 08:11:33;;;;;;;6.63;6.03;;;;;;;11.25;nan;96786.53;4956541;28;20206;-68
2023/04/28 08:14:01;;;;;;;7.30;6.60;;;;;;;11.15;nan;96781.59;4899627;28;20617;-68
2023/04/28 08:16:30;;;;;;;6.73;5.30;;;;;;;10.95;nan;96775.38;4936795;28;20209;-68
2023/04/28 08:19:00;;;;;;;8.30;6.10;;;;;;;10.76;nan;96777.75;4951367;28;20237;-67
2023/04/28 08:21:28;;;;;;;6.50;5.87;;;;;;;10.60;nan;96775.38;4934830;28;20222;-68
2023/04/28 08:23:55;;;;;;;6.23;5.60;;;;;;;10.32;nan;96781.50;4899303;28;20527;-69
2023/04/28 08:26:24;;;;;;;7.23;6.33;;;;;;;10.30;nan;96779.03;4945343;28;20222;-69
2023/04/28 08:28:53;;;;;;;8.40;6.80;;;;;;;10.24;nan;96766.56;4900675;28;22383;-66
2023/04/28 08:31:20;;;;;;;7.50;6.90;;;;;;;10.11;nan;96768.09;4953838;28;20210;-68
2023/04/28 08:33:50;;;;;;;9.63;6.60;;;;;;;10.10;nan;96777.06;4927944;28;20243;-67
2023/04/28 08:36:20;;;;;;;7.00;6.40;;;;;;;10.08;nan;96781.72;4933074;28;20221;-68
2023/04/28 08:38:47;;;;;;;6.67;6.07;;;;;;;9.98;nan;96776.75;4930258;28;20236;-66
2023/04/28 08:41:16;;;;;;;7.57;6.83;;;;;;;9.81;nan;96785.94;4951934;28;20588;-67
2023/04/28 08:43:44;;;;;;;6.60;6.00;;;;;;;9.84;nan;96780.25;4923617;28;20206;-68
2023/04/28 08:46:14;;;;;;;6.80;6.17;;;;;;;9.86;nan;96788.84;4943586;28;20210;-68
2023/04/28 08:48:43;;;;;;;7.03;6.43;;;;;;;9.77;nan;96793.44;4929666;28;20693;-68
2023/04/28 08:51:15;;;;;;;6.77;6.10;;;;;;;9.52;nan;96790.34;4937047;28;20701;-68
2023/04/28 08:53:50;;;;;;;7.90;7.10;;;;;;;9.47;nan;96798.81;4937669;28;20201;-68
2023/04/28 08:56:38;;;;;;;7.17;6.67;;;;;;;9.33;nan;96804.97;4954655;28;20295;-68
2023/04/28 08:59:06;;;;;;;7.03;6.37;;;;;;;9.41;nan;96799.56;4947576;28;20404;-68
2023/04/28 09:01:35;;;;;;;8.53;6.63;;;;;;;9.31;nan;96799.03;4895882;28;20719;-67
2023/04/28 09:04:03;;;;;;;7.67;7.07;;;;;;;9.35;nan;96795.03;4903740;28;20862;-68
2023/04/28 09:06:32;;;;;;;7.50;6.87;;;;;;;9.42;nan;96795.91;4930889;28;20679;-71
2023/04/28 09:09:20;;;;;;;7.43;6.83;;;;;;;9.44;nan;96811.56;4947439;28;20760;-72
2023/04/28 09:11:55;;;;;;;8.40;7.60;;;;;;;9.50;nan;96816.16;4947809;28;20209;-67
2023/04/28 09:14:23;;;;;;;8.03;7.33;;;;;;;9.49;nan;96811.88;4951149;28;20212;-71
2023/04/28 09:16:51;;;;;;;9.10;7.60;;;;;;;9.54;nan;96812.94;4908693;28;20221;-71
2023/04/28 09:19:19;;;;;;;8.87;8.07;;;;;;;9.65;nan;96800.22;4930500;28;20447;-68
2023/04/28 09:21:48;;;;;;;8.10;7.43;;;;;;;9.75;nan;96802.56;4942781;28;20731;-68
2023/04/28 09:24:31;;;;;;;9.33;7.90;;;;;;;9.73;nan;96797.47;4901596;28;20966;-67
2023/04/28 09:27:01;;;;;;;8.50;7.73;;;;;;;9.74;nan;96788.53;4953666;28;20240;-68
2023/04/28 09:29:29;;;;;;;8.63;7.90;;;;;;;9.70;nan;96780.13;4953532;28;20205;-68
2023/04/28 09:32:12;;;;;;;8.83;8.03;;;;;;;9.56;nan;96781.81;4911982;28;20225;-68
2023/04/28 09:34:44;;;;;;;8.87;8.00;;;;;;;9.57;nan;96777.38;4955436;28;21046;-67
2023/04/28 09:37:16;;;;;;;9.00;8.23;;;;;;;9.44;nan;96772.75;4951016;28;20230;-67
2023/04/28 09:39:48;;;;;;;9.00;7.93;;;;;;;9.53;nan;96774.25;4921530;28;20230;-67
2023/04/28 09:42:32;;;;;;;9.13;8.17;;;;;;;9.50;nan;96764.06;4935688;28;20225;-66
2023/04/28 09:45:01;;;;;;;7.87;7.03;;;;;;;9.58;nan;96764.94;4950699;28;20217;-68
2023/04/28 09:47:29;;;;;;;8.63;7.83;;;;;;;9.65;nan;96756.06;4921494;28;20232;-68
2023/04/28 09:49:58;;;;;;;8.53;7.70;;;;;;;9.76;nan;96751.28;4932851;28;20218;-67
2023/04/28 09:52:26;;;;;;;7.70;6.97;;;;;;;9.56;nan;96744.78;4944128;28;20221;-70
2023/04/28 09:54:57;;;;;;;8.13;7.40;;;;;;;9.48;nan;96739.63;4928868;28;20217;-68
2023/04/28 09:57:25;;;;;;;8.33;7.60;;;;;;;9.43;nan;96728.81;4940329;28;20516;-68
2023/04/28 09:59:53;;;;;;;9.53;8.37;;;;;;;9.32;nan;96729.31;4948063;28;20230;-67
2023/04/28 10:02:21;;;;;;;8.90;8.10;;;;;;;9.46;nan;96728.44;4922247;28;20205;-68
2023/04/28 10:05:09;;;;;;;9.13;8.17;;;;;;;9.43;nan;96735.91;4934946;28;21068;-67
2023/04/28 10:07:38;;;;;;;9.07;8.30;;;;;;;9.43;nan;96726.16;4954851;28;20233;-67
2023/04/28 10:10:09;;;;;;;9.83;8.63;;;;;;;9.34;nan;96730.75;4938247;28;20213;-67
2023/04/28 10:12:37;;;;;;;8.53;7.80;;;;;;;9.20;nan;96731.59;4938442;28;20219;-63
2023/04/28 10:15:07;;;;;;;10.03;9.10;;;;;;;9.25;nan;96729.22;4939274;28;20253;-64
2023/04/28 10:17:35;;;;;;;9.57;8.80;;;;;;;9.12;nan;96721.97;4919795;28;20744;-68
2023/04/28 10:20:05;;;;;;;9.20;8.43;;;;;;;9.03;nan;96715.16;4938583;28;20226;-67
2023/04/28 10:22:44;;;;;;;9.23;8.53;;;;;;;8.98;nan;96724.47;4949909;28;20460;-67
2023/04/28 10:25:27;;;;;;;9.93;9.13;;;;;;;9.05;nan;96718.44;4935969;28;20214;-67
2023/04/28 10:27:55;;;;;;;9.67;8.87;;;;;;;9.09;nan;96722.34;4939710;28;20873;-67
2023/04/28 10:30:25;;;;;;;9.03;8.23;;;;;;;9.10;nan;96722.16;4950325;28;21067;-68
2023/04/28 10:33:28;;;;;;;9.30;8.37;;;;;;;9.10;nan;96731.91;4914335;28;20222;-69
2023/04/28 10:35:56;;;;;;;9.03;8.13;;;;;;;9.11;nan;96715.03;4863793;29;20234;-69
2023/04/28 10:38:24;;;;;;;10.53;9.53;;;;;;;9.29;nan;96719.09;4891698;29;20236;-68
2023/04/28 10:40:53;;;;;;;9.70;8.83;;;;;;;9.45;nan;96705.63;4899645;28;20288;-68
2023/04/28 10:43:36;;;;;;;9.30;8.33;;;;;;;9.67;nan;96708.28;4932703;28;20257;-69
2023/04/28 10:46:05;;;;;;;9.37;8.57;;;;;;;9.70;nan;96713.19;4939844;28;20199;-66
2023/04/28 10:49:07;;;;;;;8.70;7.93;;;;;;;9.80;nan;96711.03;4905532;28;20661;-67
2023/04/28 10:51:34;;;;;;;9.17;8.47;;;;;;;9.82;nan;96705.53;4937821;28;20205;-67
2023/04/28 10:54:24;;;;;;;9.33;8.43;;;;;;;9.99;nan;96706.09;4945070;28;20244;-67
2023/04/28 10:57:29;;;;;;;8.80;8.20;;;;;;;10.05;nan;96704.50;4924152;28;20221;-67
2023/04/28 11:00:27;;;;;;;9.40;8.50;;;;;;;10.04;nan;96701.06;4938796;28;20256;-67
2023/04/28 11:02:55;;;;;;;9.23;8.33;;;;;;;10.08;nan;96689.06;4942363;28;20202;-68
2023/04/28 11:05:27;;;;;;;9.63;8.40;;;;;;;10.07;nan;96687.44;4909619;28;20771;-67
2023/04/28 11:08:32;;;;;;;9.17;8.33;;;;;;;10.06;nan;96675.22;4902782;28;20224;-67
2023/04/28 11:11:24;;;;;;;9.50;8.70;;;;;;;10.16;nan;96682.78;4953239;28;20471;-68
2023/04/28 11:13:54;;;;;;;8.77;8.07;;;;;;;10.25;nan;96688.75;4864223;28;20942;-68
2023/04/28 11:16:25;;;;;;;8.20;7.60;;;;;;;10.23;nan;96682.84;4947990;28;20216;-70
2023/04/28 11:19:03;;;;;;;9.57;8.77;;;;;;;10.28;nan;96675.97;4885261;28;20363;-67
2023/04/28 11:21:32;;;;;;;8.80;8.10;;;;;;;10.25;nan;96680.81;4942831;28;20209;-68
2023/04/28 11:24:00;;;;;;;8.80;8.00;;;;;;;10.25;nan;96688.75;4918048;28;20491;-68
2023/04/28 11:26:29;;;;;;;9.00;8.30;;;;;;;10.23;nan;96690.78;4951501;28;20217;-68
2023/04/28 11:28:58;;;;;;;8.57;7.93;;;;;;;10.19;nan;96671.81;4935563;28;20460;-67
2023/04/28 11:31:27;;;;;;;8.77;8.07;;;;;;;10.18;nan;96662.25;4933081;28;20662;-69
2023/04/28 11:34:01;;;;;;;8.87;8.17;;;;;;;10.28;nan;96653.94;4932783;28;20769;-70
2023/04/28 11:36:34;;;;;;;8.73;8.13;;;;;;;10.32;nan;96670.28;4898590;28;20222;-69
2023/04/28 11:39:06;;;;;;;8.67;8.07;;;;;;;10.42;nan;96661.00;4929393;28;20225;-70
2023/04/28 11:41:34;;;;;;;9.77;8.97;;;;;;;10.53;nan;96677.34;4951097;28;20824;-68
2023/04/28 11:44:10;;;;;;;9.07;8.27;;;;;;;10.62;nan;96670.88;4934563;28;20213;-68
2023/04/28 11:46:49;;;;;;;8.60;7.93;;;;;;;10.62;nan;96662.91;4933140;28;20422;-68
2023/04/28 11:49:17;;;;;;;7.83;7.20;;;;;;;10.60;nan;96662.28;4892870;28;20303;-68
2023/04/28 11:51:47;;;;;;;8.57;7.83;;;;;;;10.64;nan;96676.78;4949783;28;20279;-68
2023/04/28 11:54:20;;;;;;;8.07;7.47;;;;;;;10.58;nan;96669.63;4927413;28;20293;-68
2023/04/28 11:56:48;;;;;;;7.93;7.37;;;;;;;10.50;nan;96672.44;4936766;28;20284;-68
2023/04/28 11:59:16;;;;;;;7.73;7.13;;;;;;;10.47;nan;96671.00;4915723;28;20268;-69
2023/04/28 12:01:48;;;;;;;7.70;7.10;;;;;;;10.62;nan;96676.16;4922518;28;20808;-68
2023/04/28 12:04:27;;;;;;;8.50;7.80;;;;;;;10.71;nan;96672.31;4908779;28;20229;-69
2023/04/28 12:07:05;;;;;;;8.33;7.63;;;;;;;10.77;nan;96675.19;4956163;28;20224;-69
2023/04/28 12:09:34;;;;;;;8.97;7.67;;;;;;;10.74;nan;96683.53;4933891;28;20252;-68